sensor_id;sensor_type;location;lat;lon;timestamp;pressure;altitude;pressure_sealevel;temperature;humidity
38718;BME280;24468;52.128;9.278;2023-09-07T00:01:30;101314.28;;;18.67;100.00
38718;BME280;24468;52.128;9.278;2023-09-07T00:03:55;101316.09;;;18.54;100.00
38718;BME280;24468;52.128;9.278;2023-09-07T00:06:21;101317.25;;;18.50;100.00
38718;BME280;24468;52.128;9.278;2023-09-07T00:08:46;101311.16;;;18.32;100.00
38718;BME280;24468;52.128;9.278;2023-09-07T00:11:12;101318.94;;;18.38;100.00
38718;BME280;24468;52.128;9.278;2023-09-07T00:13:38;101317.56;;;18.31;100.00
38718;BME280;24468;52.128;9.278;2023-09-07T00:16:04;101321.19;;;18.17;100.00
38718;BME280;24468;52.128;9.278;2023-09-07T00:18:32;101321.19;;;18.17;100.00
38718;BME280;24468;52.128;9.278;2023-09-07T00:20:58;101321.97;;;18.19;100.00
38718;BME280;24468;52.128;9.278;2023-09-07T00:23:25;101322.66;;;18.23;100.00
38718;BME280;24468;52.128;9.278;2023-09-07T00:25:50;101319.22;;;18.34;100.00
38718;BME280;24468;52.128;9.278;2023-09-07T00:28:16;101319.22;;;18.34;100.00
38718;BME280;24468;52.128;9.278;2023-09-07T00:30:42;101321.19;;;18.17;100.00
38718;BME280;24468;52.128;9.278;2023-09-07T00:33:07;101324.91;;;18.16;100.00
38718;BME280;24468;52.128;9.278;2023-09-07T00:35:33;101330.16;;;18.19;100.00
38718;BME280;24468;52.128;9.278;2023-09-07T00:38:00;101330.38;;;18.16;100.00
38718;BME280;24468;52.128;9.278;2023-09-07T00:40:25;101325.28;;;18.25;100.00
38718;BME280;24468;52.128;9.278;2023-09-07T00:42:52;101331.72;;;18.23;100.00
38718;BME280;24468;52.128;9.278;2023-09-07T00:45:18;101324.13;;;18.14;100.00
38718;BME280;24468;52.128;9.278;2023-09-07T00:47:44;101322.84;;;18.20;100.00
38718;BME280;24468;52.128;9.278;2023-09-07T00:50:10;101317.38;;;18.20;100.00
38718;BME280;24468;52.128;9.278;2023-09-07T00:52:40;101318.25;;;18.20;100.00
38718;BME280;24468;52.128;9.278;2023-09-07T00:55:07;101330.94;;;18.21;100.00
38718;BME280;24468;52.128;9.278;2023-09-07T00:57:34;101322.34;;;18.28;100.00
38718;BME280;24468;52.128;9.278;2023-09-07T01:00:00;101327.03;;;18.11;100.00
38718;BME280;24468;52.128;9.278;2023-09-07T01:02:25;101330.56;;;18.13;100.00
38718;BME280;24468;52.128;9.278;2023-09-07T01:04:52;101331.03;;;18.06;100.00
38718;BME280;24468;52.128;9.278;2023-09-07T01:07:25;101329.56;;;18.00;100.00
38718;BME280;24468;52.128;9.278;2023-09-07T01:09:56;101329.31;;;18.05;100.00
38718;BME280;24468;52.128;9.278;2023-09-07T01:12:23;101328.13;;;18.09;100.00
38718;BME280;24468;52.128;9.278;2023-09-07T01:14:48;101319.06;;;18.08;100.00
38718;BME280;24468;52.128;9.278;2023-09-07T01:17:14;101315.91;;;18.14;100.00
38718;BME280;24468;52.128;9.278;2023-09-07T01:19:41;101315.91;;;18.14;100.00
38718;BME280;24468;52.128;9.278;2023-09-07T01:22:08;101309.88;;;18.09;100.00
38718;BME280;24468;52.128;9.278;2023-09-07T01:24:34;101315.13;;;18.12;100.00
38718;BME280;24468;52.128;9.278;2023-09-07T01:27:03;101315.44;;;18.08;100.00
38718;BME280;24468;52.128;9.278;2023-09-07T01:29:30;101310.06;;;18.06;100.00
38718;BME280;24468;52.128;9.278;2023-09-07T01:31:56;101309.78;;;17.96;100.00
38718;BME280;24468;52.128;9.278;2023-09-07T01:34:23;101308.22;;;17.92;100.00
38718;BME280;24468;52.128;9.278;2023-09-07T01:36:49;101312.59;;;17.95;100.00
38718;BME280;24468;52.128;9.278;2023-09-07T01:39:14;101312.00;;;17.90;100.00
38718;BME280;24468;52.128;9.278;2023-09-07T01:41:40;101317.06;;;17.82;100.00
38718;BME280;24468;52.128;9.278;2023-09-07T01:44:06;101310.28;;;17.89;100.00
38718;BME280;24468;52.128;9.278;2023-09-07T01:46:31;101311.06;;;17.91;100.00
38718;BME280;24468;52.128;9.278;2023-09-07T01:48:57;101313.78;;;17.91;100.00
38718;BME280;24468;52.128;9.278;2023-09-07T01:51:22;101313.09;;;17.87;100.00
38718;BME280;24468;52.128;9.278;2023-09-07T01:53:48;101303.44;;;17.82;100.00
38718;BME280;24468;52.128;9.278;2023-09-07T01:56:17;101308.81;;;17.83;100.00
38718;BME280;24468;52.128;9.278;2023-09-07T01:58:42;101302.81;;;17.76;100.00
38718;BME280;24468;52.128;9.278;2023-09-07T02:01:29;101301.84;;;17.77;100.00
38718;BME280;24468;52.128;9.278;2023-09-07T02:03:55;101299.44;;;17.87;100.00
38718;BME280;24468;52.128;9.278;2023-09-07T02:06:21;101299.75;;;17.83;100.00
38718;BME280;24468;52.128;9.278;2023-09-07T02:08:46;101303.03;;;17.88;100.00
38718;BME280;24468;52.128;9.278;2023-09-07T02:11:12;101305.09;;;17.98;100.00
38718;BME280;24468;52.128;9.278;2023-09-07T02:13:41;101306.28;;;17.94;100.00
38718;BME280;24468;52.128;9.278;2023-09-07T02:16:07;101307.44;;;17.90;100.00
38718;BME280;24468;52.128;9.278;2023-09-07T02:18:32;101307.81;;;17.84;100.00
38718;BME280;24468;52.128;9.278;2023-09-07T02:21:02;101297.19;;;17.80;100.00
38718;BME280;24468;52.128;9.278;2023-09-07T02:23:30;101306.94;;;17.84;100.00
38718;BME280;24468;52.128;9.278;2023-09-07T02:25:55;101305.84;;;17.72;100.00
38718;BME280;24468;52.128;9.278;2023-09-07T02:28:21;101303.81;;;17.90;100.00
38718;BME280;24468;52.128;9.278;2023-09-07T02:30:46;101309.72;;;17.68;100.00
38718;BME280;24468;52.128;9.278;2023-09-07T02:33:12;101314.53;;;17.93;100.00
38718;BME280;24468;52.128;9.278;2023-09-07T02:35:37;101300.19;;;17.75;100.00
38718;BME280;24468;52.128;9.278;2023-09-07T02:38:03;101311.38;;;17.70;100.00
38718;BME280;24468;52.128;9.278;2023-09-07T02:40:28;101317.09;;;17.66;100.00
38718;BME280;24468;52.128;9.278;2023-09-07T02:42:54;101316.25;;;17.65;100.00
38718;BME280;24468;52.128;9.278;2023-09-07T02:45:19;101318.38;;;17.60;100.00
38718;BME280;24468;52.128;9.278;2023-09-07T02:47:45;101304.41;;;17.36;100.00
38718;BME280;24468;52.128;9.278;2023-09-07T02:50:12;101318.13;;;17.34;100.00
38718;BME280;24468;52.128;9.278;2023-09-07T02:52:39;101310.91;;;17.33;100.00
38718;BME280;24468;52.128;9.278;2023-09-07T02:55:05;101316.78;;;17.42;100.00
38718;BME280;24468;52.128;9.278;2023-09-07T02:57:31;101311.81;;;17.48;100.00
38718;BME280;24468;52.128;9.278;2023-09-07T02:59:57;101311.50;;;17.39;100.00
38718;BME280;24468;52.128;9.278;2023-09-07T03:02:22;101313.00;;;17.44;100.00
38718;BME280;24468;52.128;9.278;2023-09-07T03:04:56;101314.75;;;17.45;100.00
38718;BME280;24468;52.128;9.278;2023-09-07T03:07:24;101311.63;;;17.51;100.00
38718;BME280;24468;52.128;9.278;2023-09-07T03:09:52;101304.50;;;17.49;100.00
38718;BME280;24468;52.128;9.278;2023-09-07T03:12:18;101308.22;;;17.48;100.00
38718;BME280;24468;52.128;9.278;2023-09-07T03:14:43;101306.81;;;17.41;100.00
38718;BME280;24468;52.128;9.278;2023-09-07T03:17:10;101311.34;;;17.42;100.00
38718;BME280;24468;52.128;9.278;2023-09-07T03:19:36;101309.78;;;17.52;100.00
38718;BME280;24468;52.128;9.278;2023-09-07T03:22:01;101315.34;;;17.50;100.00
38718;BME280;24468;52.128;9.278;2023-09-07T03:24:28;101307.03;;;17.38;100.00
38718;BME280;24468;52.128;9.278;2023-09-07T03:26:54;101312.75;;;17.33;100.00
38718;BME280;24468;52.128;9.278;2023-09-07T03:29:19;101312.47;;;17.38;100.00
38718;BME280;24468;52.128;9.278;2023-09-07T03:31:45;101315.13;;;17.39;100.00
38718;BME280;24468;52.128;9.278;2023-09-07T03:34:11;101310.44;;;17.41;100.00
38718;BME280;24468;52.128;9.278;2023-09-07T03:36:36;101311.09;;;17.30;100.00
38718;BME280;24468;52.128;9.278;2023-09-07T03:39:02;101311.56;;;17.23;100.00
38718;BME280;24468;52.128;9.278;2023-09-07T03:41:27;101312.47;;;17.38;100.00
38718;BME280;24468;52.128;9.278;2023-09-07T03:43:56;101314.78;;;17.29;100.00
38718;BME280;24468;52.128;9.278;2023-09-07T03:46:22;101317.91;;;17.07;100.00
38718;BME280;24468;52.128;9.278;2023-09-07T03:48:47;101319.59;;;17.10;100.00
38718;BME280;24468;52.128;9.278;2023-09-07T03:51:13;101321.88;;;17.18;100.00
38718;BME280;24468;52.128;9.278;2023-09-07T03:53:38;101322.50;;;17.07;100.00
38718;BME280;24468;52.128;9.278;2023-09-07T03:56:04;101321.31;;;17.11;100.00
38718;BME280;24468;52.128;9.278;2023-09-07T03:58:30;101318.38;;;17.00;100.00
38718;BME280;24468;52.128;9.278;2023-09-07T04:00:59;101316.69;;;16.97;100.00
38718;BME280;24468;52.128;9.278;2023-09-07T04:03:25;101319.28;;;16.84;100.00
38718;BME280;24468;52.128;9.278;2023-09-07T04:05:51;101320.41;;;16.80;100.00
38718;BME280;24468;52.128;9.278;2023-09-07T04:08:16;101323.94;;;16.82;100.00
38718;BME280;24468;52.128;9.278;2023-09-07T04:10:42;101322.66;;;16.72;100.00
38718;BME280;24468;52.128;9.278;2023-09-07T04:13:08;101320.31;;;16.66;100.00
38718;BME280;24468;52.128;9.278;2023-09-07T04:15:40;101322.34;;;16.62;100.00
38718;BME280;24468;52.128;9.278;2023-09-07T05:40:52;101328.78;;;16.28;100.00
38718;BME280;24468;52.128;9.278;2023-09-07T05:43:20;101329.94;;;16.40;100.00
38718;BME280;24468;52.128;9.278;2023-09-07T05:45:46;101330.56;;;16.61;100.00
38718;BME280;24468;52.128;9.278;2023-09-07T05:48:11;101330.66;;;16.75;100.00
38718;BME280;24468;52.128;9.278;2023-09-07T05:50:38;101333.59;;;16.88;100.00
38718;BME280;24468;52.128;9.278;2023-09-07T05:53:04;101335.63;;;17.00;100.00
38718;BME280;24468;52.128;9.278;2023-09-07T05:55:30;101340.84;;;17.19;100.00
38718;BME280;24468;52.128;9.278;2023-09-07T05:57:57;101342.84;;;17.31;100.00
38718;BME280;24468;52.128;9.278;2023-09-07T06:00:23;101342.69;;;17.49;100.00
38718;BME280;24468;52.128;9.278;2023-09-07T06:02:49;101344.69;;;17.61;100.00
38718;BME280;24468;52.128;9.278;2023-09-07T06:05:14;101332.34;;;17.70;100.00
38718;BME280;24468;52.128;9.278;2023-09-07T06:07:40;101340.69;;;17.83;100.00
38718;BME280;24468;52.128;9.278;2023-09-07T06:10:06;101338.28;;;17.76;100.00
38718;BME280;24468;52.128;9.278;2023-09-07T06:12:32;101337.78;;;18.00;100.00
38718;BME280;24468;52.128;9.278;2023-09-07T06:15:00;101337.28;;;18.08;100.00
38718;BME280;24468;52.128;9.278;2023-09-07T06:17:27;101336.63;;;18.18;100.00
38718;BME280;24468;52.128;9.278;2023-09-07T06:19:53;101344.69;;;18.20;100.00
38718;BME280;24468;52.128;9.278;2023-09-07T06:22:19;101343.53;;;18.38;100.00
38718;BME280;24468;52.128;9.278;2023-09-07T06:24:44;101339.91;;;18.38;100.00
38718;BME280;24468;52.128;9.278;2023-09-07T06:27:10;101341.94;;;18.34;100.00
38718;BME280;24468;52.128;9.278;2023-09-07T06:29:35;101346.28;;;18.24;100.00
38718;BME280;24468;52.128;9.278;2023-09-07T06:32:01;101354.97;;;18.72;100.00
38718;BME280;24468;52.128;9.278;2023-09-07T06:34:26;101345.81;;;18.73;100.00
38718;BME280;24468;52.128;9.278;2023-09-07T06:36:52;101346.72;;;18.59;100.00
38718;BME280;24468;52.128;9.278;2023-09-07T06:39:17;101344.88;;;18.60;100.00
38718;BME280;24468;52.128;9.278;2023-09-07T06:41:46;101353.03;;;18.88;100.00
38718;BME280;24468;52.128;9.278;2023-09-07T06:44:11;101347.78;;;18.71;100.00
38718;BME280;24468;52.128;9.278;2023-09-07T06:46:37;101346.63;;;18.61;100.00
38718;BME280;24468;52.128;9.278;2023-09-07T06:49:03;101346.72;;;18.59;100.00
38718;BME280;24468;52.128;9.278;2023-09-07T06:51:30;101350.88;;;18.94;100.00
38718;BME280;24468;52.128;9.278;2023-09-07T06:53:56;101348.44;;;18.89;100.00
38718;BME280;24468;52.128;9.278;2023-09-07T06:56:21;101339.56;;;19.52;100.00
38718;BME280;24468;52.128;9.278;2023-09-07T06:58:47;101344.75;;;19.30;100.00
38718;BME280;24468;52.128;9.278;2023-09-07T07:01:12;101339.91;;;19.48;100.00
38718;BME280;24468;52.128;9.278;2023-09-07T07:03:38;101337.56;;;19.82;100.00
38718;BME280;24468;52.128;9.278;2023-09-07T07:06:03;101336.50;;;19.57;100.00
38718;BME280;24468;52.128;9.278;2023-09-07T07:08:29;101343.41;;;19.63;100.00
38718;BME280;24468;52.128;9.278;2023-09-07T07:10:55;101330.88;;;19.98;100.00
38718;BME280;24468;52.128;9.278;2023-09-07T07:13:20;101335.81;;;20.19;100.00
38718;BME280;24468;52.128;9.278;2023-09-07T07:15:46;101331.94;;;20.34;100.00
38718;BME280;24468;52.128;9.278;2023-09-07T07:18:11;101334.16;;;20.29;100.00
38718;BME280;24468;52.128;9.278;2023-09-07T07:20:41;101339.09;;;19.98;100.00
38718;BME280;24468;52.128;9.278;2023-09-07T07:23:07;101344.59;;;19.98;100.00
38718;BME280;24468;52.128;9.278;2023-09-07T07:25:34;101349.72;;;19.90;100.00
38718;BME280;24468;52.128;9.278;2023-09-07T07:28:06;101343.44;;;20.52;100.00
38718;BME280;24468;52.128;9.278;2023-09-07T07:30:37;101342.91;;;20.34;100.00
38718;BME280;24468;52.128;9.278;2023-09-07T07:33:04;101338.63;;;20.56;100.00
38718;BME280;24468;52.128;9.278;2023-09-07T07:35:31;101334.03;;;20.56;100.00
38718;BME280;24468;52.128;9.278;2023-09-07T07:37:56;101346.88;;;20.56;100.00
38718;BME280;24468;52.128;9.278;2023-09-07T07:40:22;101338.84;;;20.65;100.00
38718;BME280;24468;52.128;9.278;2023-09-07T07:42:48;101345.47;;;20.87;100.00
38718;BME280;24468;52.128;9.278;2023-09-07T07:45:14;101348.63;;;20.94;100.00
38718;BME280;24468;52.128;9.278;2023-09-07T07:47:41;101343.97;;;21.07;100.00
38718;BME280;24468;52.128;9.278;2023-09-07T07:50:07;101339.09;;;21.35;100.00
38718;BME280;24468;52.128;9.278;2023-09-07T07:52:33;101341.72;;;21.60;100.00
38718;BME280;24468;52.128;9.278;2023-09-07T07:54:59;101331.72;;;21.48;100.00
38718;BME280;24468;52.128;9.278;2023-09-07T07:57:24;101339.53;;;21.88;100.00
38718;BME280;24468;52.128;9.278;2023-09-07T07:59:50;101337.06;;;22.07;100.00
38718;BME280;24468;52.128;9.278;2023-09-07T08:02:16;101333.38;;;22.42;100.00
38718;BME280;24468;52.128;9.278;2023-09-07T08:04:41;101331.50;;;22.42;100.00
38718;BME280;24468;52.128;9.278;2023-09-07T08:07:07;101328.25;;;22.49;100.00
38718;BME280;24468;52.128;9.278;2023-09-07T08:09:34;101325.72;;;22.79;100.00
38718;BME280;24468;52.128;9.278;2023-09-07T08:12:01;101315.06;;;22.97;100.00
38718;BME280;24468;52.128;9.278;2023-09-07T08:14:30;101314.25;;;23.18;100.00
38718;BME280;24468;52.128;9.278;2023-09-07T08:16:56;101314.06;;;23.30;100.00
38718;BME280;24468;52.128;9.278;2023-09-07T08:19:22;101311.03;;;23.45;100.00
38718;BME280;24468;52.128;9.278;2023-09-07T08:21:48;101306.09;;;23.69;100.00
38718;BME280;24468;52.128;9.278;2023-09-07T08:24:13;101307.28;;;23.67;100.00
38718;BME280;24468;52.128;9.278;2023-09-07T08:26:39;101306.13;;;23.90;100.00
38718;BME280;24468;52.128;9.278;2023-09-07T08:29:05;101295.81;;;24.13;100.00
38718;BME280;24468;52.128;9.278;2023-09-07T08:31:38;101300.53;;;24.32;100.00
38718;BME280;24468;52.128;9.278;2023-09-07T08:34:08;101300.53;;;24.63;100.00
38718;BME280;24468;52.128;9.278;2023-09-07T08:36:34;101300.34;;;24.24;100.00
38718;BME280;24468;52.128;9.278;2023-09-07T08:39:06;101311.03;;;24.38;100.00
38718;BME280;24468;52.128;9.278;2023-09-07T08:41:40;101302.16;;;24.75;100.00
38718;BME280;24468;52.128;9.278;2023-09-07T08:44:10;101299.97;;;24.69;100.00
38718;BME280;24468;52.128;9.278;2023-09-07T08:46:40;101304.75;;;24.57;100.00
38718;BME280;24468;52.128;9.278;2023-09-07T08:49:06;101301.59;;;25.01;100.00
38718;BME280;24468;52.128;9.278;2023-09-07T08:51:32;101293.22;;;25.12;100.00
38718;BME280;24468;52.128;9.278;2023-09-07T08:53:58;101293.63;;;24.88;100.00
38718;BME280;24468;52.128;9.278;2023-09-07T08:56:25;101295.81;;;25.14;100.00
38718;BME280;24468;52.128;9.278;2023-09-07T08:58:51;101301.06;;;25.07;99.94
38718;BME280;24468;52.128;9.278;2023-09-07T09:01:20;101296.59;;;25.35;100.00
38718;BME280;24468;52.128;9.278;2023-09-07T09:03:51;101300.31;;;25.63;98.58
38718;BME280;24468;52.128;9.278;2023-09-07T09:06:18;101298.47;;;25.44;97.71
38718;BME280;24468;52.128;9.278;2023-09-07T09:08:54;101312.09;;;25.07;98.45
38718;BME280;24468;52.128;9.278;2023-09-07T09:11:21;101307.34;;;25.48;98.74
38718;BME280;24468;52.128;9.278;2023-09-07T09:13:49;101308.22;;;25.29;98.17
38718;BME280;24468;52.128;9.278;2023-09-07T09:16:15;101306.84;;;25.72;97.95
38718;BME280;24468;52.128;9.278;2023-09-07T09:18:56;101308.88;;;25.99;96.06
38718;BME280;24468;52.128;9.278;2023-09-07T09:21:23;101299.94;;;26.15;95.15
38718;BME280;24468;52.128;9.278;2023-09-07T09:23:52;101298.88;;;26.26;93.66
38718;BME280;24468;52.128;9.278;2023-09-07T09:26:19;101298.09;;;26.71;92.70
38718;BME280;24468;52.128;9.278;2023-09-07T09:28:45;101294.00;;;26.75;91.83
38718;BME280;24468;52.128;9.278;2023-09-07T09:31:10;101289.31;;;26.48;92.40
38718;BME280;24468;52.128;9.278;2023-09-07T09:33:42;101290.53;;;26.73;90.35
38718;BME280;24468;52.128;9.278;2023-09-07T09:36:08;101286.22;;;26.88;90.28
38718;BME280;24468;52.128;9.278;2023-09-07T09:38:35;101293.66;;;27.05;89.54
38718;BME280;24468;52.128;9.278;2023-09-07T09:41:01;101290.94;;;27.23;87.18
38718;BME280;24468;52.128;9.278;2023-09-07T09:43:28;101282.53;;;27.33;86.02
38718;BME280;24468;52.128;9.278;2023-09-07T09:45:54;101274.06;;;27.35;84.39
38718;BME280;24468;52.128;9.278;2023-09-07T09:48:20;101294.88;;;27.21;86.22
38718;BME280;24468;52.128;9.278;2023-09-07T09:50:50;101284.50;;;27.41;83.43
38718;BME280;24468;52.128;9.278;2023-09-07T09:53:17;101279.44;;;27.80;82.28
38718;BME280;24468;52.128;9.278;2023-09-07T09:55:49;101276.91;;;27.87;78.32
38718;BME280;24468;52.128;9.278;2023-09-07T09:58:16;101273.75;;;27.64;80.65
38718;BME280;24468;52.128;9.278;2023-09-07T10:00:50;101266.00;;;27.23;78.34
38718;BME280;24468;52.128;9.278;2023-09-07T10:03:33;101259.88;;;27.20;75.21
38718;BME280;24468;52.128;9.278;2023-09-07T10:06:29;101269.38;;;27.79;73.87
38718;BME280;24468;52.128;9.278;2023-09-07T10:09:03;101271.56;;;28.20;70.94
38718;BME280;24468;52.128;9.278;2023-09-07T10:11:33;101272.00;;;28.41;68.30
38718;BME280;24468;52.128;9.278;2023-09-07T10:14:03;101274.63;;;28.16;70.00
38718;BME280;24468;52.128;9.278;2023-09-07T10:19:17;101265.38;;;28.34;69.67
38718;BME280;24468;52.128;9.278;2023-09-07T10:21:43;101262.44;;;28.01;68.75
38718;BME280;24468;52.128;9.278;2023-09-07T10:24:09;101251.16;;;28.37;69.03
38718;BME280;24468;52.128;9.278;2023-09-07T10:26:35;101253.84;;;28.47;65.62
38718;BME280;24468;52.128;9.278;2023-09-07T10:29:01;101244.88;;;28.61;65.13
38718;BME280;24468;52.128;9.278;2023-09-07T10:31:29;101256.56;;;28.81;65.75
38718;BME280;24468;52.128;9.278;2023-09-07T10:34:10;101258.50;;;28.97;59.65
38718;BME280;24468;52.128;9.278;2023-09-07T10:36:37;101250.53;;;29.02;61.59
38718;BME280;24468;52.128;9.278;2023-09-07T10:39:03;101252.81;;;29.15;60.04
38718;BME280;24468;52.128;9.278;2023-09-07T10:41:43;101249.50;;;29.11;57.26
38718;BME280;24468;52.128;9.278;2023-09-07T10:44:09;101246.22;;;29.32;59.80
38718;BME280;24468;52.128;9.278;2023-09-07T10:46:39;101243.25;;;29.58;58.84
38718;BME280;24468;52.128;9.278;2023-09-07T10:49:08;101238.19;;;28.96;61.82
38718;BME280;24468;52.128;9.278;2023-09-07T10:51:41;101242.19;;;29.02;64.27
38718;BME280;24468;52.128;9.278;2023-09-07T10:54:23;101233.53;;;29.54;60.46
38718;BME280;24468;52.128;9.278;2023-09-07T10:56:50;101228.34;;;29.43;59.11
38718;BME280;24468;52.128;9.278;2023-09-07T10:59:16;101236.69;;;29.43;60.32
38718;BME280;24468;52.128;9.278;2023-09-07T11:01:46;101228.34;;;29.35;60.71
38718;BME280;24468;52.128;9.278;2023-09-07T11:04:13;101229.72;;;29.22;60.37
38718;BME280;24468;52.128;9.278;2023-09-07T11:06:40;101220.66;;;29.78;59.42
38718;BME280;24468;52.128;9.278;2023-09-07T11:09:06;101225.50;;;29.84;59.06
38718;BME280;24468;52.128;9.278;2023-09-07T11:11:35;101216.59;;;29.97;58.72
38718;BME280;24468;52.128;9.278;2023-09-07T11:14:03;101219.78;;;29.61;61.31
38718;BME280;24468;52.128;9.278;2023-09-07T11:16:30;101216.50;;;29.57;60.88
38718;BME280;24468;52.128;9.278;2023-09-07T11:18:55;101215.78;;;29.88;60.45
38718;BME280;24468;52.128;9.278;2023-09-07T11:21:21;101208.06;;;30.06;60.59
38718;BME280;24468;52.128;9.278;2023-09-07T11:23:48;101207.41;;;29.96;58.65
38718;BME280;24468;52.128;9.278;2023-09-07T11:26:14;101206.41;;;29.48;59.10
38718;BME280;24468;52.128;9.278;2023-09-07T11:28:45;101203.09;;;29.61;61.92
38718;BME280;24468;52.128;9.278;2023-09-07T11:31:10;101206.91;;;29.92;59.83
38718;BME280;24468;52.128;9.278;2023-09-07T11:33:36;101198.28;;;30.10;59.20
38718;BME280;24468;52.128;9.278;2023-09-07T11:36:03;101197.44;;;30.10;59.13
38718;BME280;24468;52.128;9.278;2023-09-07T11:38:36;101195.91;;;29.99;57.26
38718;BME280;24468;52.128;9.278;2023-09-07T11:41:03;101193.44;;;29.32;59.78
38718;BME280;24468;52.128;9.278;2023-09-07T11:43:28;101195.28;;;29.56;60.28
38718;BME280;24468;52.128;9.278;2023-09-07T11:45:54;101200.25;;;30.02;58.30
38718;BME280;24468;52.128;9.278;2023-09-07T11:48:20;101187.81;;;30.21;56.37
38718;BME280;24468;52.128;9.278;2023-09-07T11:50:45;101185.44;;;30.49;55.54
38718;BME280;24468;52.128;9.278;2023-09-07T11:53:11;101185.44;;;30.09;56.24
38718;BME280;24468;52.128;9.278;2023-09-07T11:55:36;101196.78;;;30.00;57.14
38718;BME280;24468;52.128;9.278;2023-09-07T11:58:04;101193.50;;;29.96;55.77
38718;BME280;24468;52.128;9.278;2023-09-07T12:00:32;101176.06;;;30.02;53.25
38718;BME280;24468;52.128;9.278;2023-09-07T12:02:58;101189.75;;;29.64;56.10
38718;BME280;24468;52.128;9.278;2023-09-07T12:05:24;101180.19;;;29.51;56.24
38718;BME280;24468;52.128;9.278;2023-09-07T12:07:49;101188.00;;;28.90;57.22
38718;BME280;24468;52.128;9.278;2023-09-07T12:10:15;101189.72;;;29.73;55.49
38718;BME280;24468;52.128;9.278;2023-09-07T12:12:41;101180.25;;;30.06;53.00
38718;BME280;24468;52.128;9.278;2023-09-07T12:15:07;101186.06;;;29.80;57.15
38718;BME280;24468;52.128;9.278;2023-09-07T12:17:34;101179.66;;;29.72;58.69
38718;BME280;24468;52.128;9.278;2023-09-07T12:20:00;101183.25;;;29.88;60.67
38718;BME280;24468;52.128;9.278;2023-09-07T12:22:27;101174.13;;;29.47;61.93
38718;BME280;24468;52.128;9.278;2023-09-07T12:24:52;101173.41;;;29.53;62.14
38718;BME280;24468;52.128;9.278;2023-09-07T12:27:18;101184.19;;;28.99;61.65
38718;BME280;24468;52.128;9.278;2023-09-07T12:29:44;101176.22;;;29.20;62.98
38718;BME280;24468;52.128;9.278;2023-09-07T12:32:10;101175.88;;;29.15;62.63
38718;BME280;24468;52.128;9.278;2023-09-07T12:34:36;101168.03;;;29.52;60.27
38718;BME280;24468;52.128;9.278;2023-09-07T12:37:02;101180.69;;;29.62;60.68
38718;BME280;24468;52.128;9.278;2023-09-07T12:39:30;101183.16;;;29.49;59.27
38718;BME280;24468;52.128;9.278;2023-09-07T12:41:55;101182.25;;;29.81;58.38
38718;BME280;24468;52.128;9.278;2023-09-07T12:44:21;101166.38;;;29.98;58.92
38718;BME280;24468;52.128;9.278;2023-09-07T12:46:46;101174.22;;;29.86;57.84
38718;BME280;24468;52.128;9.278;2023-09-07T12:49:12;101163.34;;;29.52;58.59
38718;BME280;24468;52.128;9.278;2023-09-07T12:51:40;101166.59;;;29.72;58.77
38718;BME280;24468;52.128;9.278;2023-09-07T12:54:06;101159.81;;;30.22;58.22
38718;BME280;24468;52.128;9.278;2023-09-07T12:56:31;101150.22;;;29.85;58.41
38718;BME280;24468;52.128;9.278;2023-09-07T12:58:57;101150.66;;;30.05;59.11
38718;BME280;24468;52.128;9.278;2023-09-07T13:01:25;101146.34;;;30.42;58.74
38718;BME280;24468;52.128;9.278;2023-09-07T13:03:51;101147.34;;;30.10;58.51
38718;BME280;24468;52.128;9.278;2023-09-07T13:06:16;101136.84;;;29.81;58.53
38718;BME280;24468;52.128;9.278;2023-09-07T13:08:43;101140.34;;;29.75;58.60
38718;BME280;24468;52.128;9.278;2023-09-07T13:11:10;101133.56;;;30.17;57.90
38718;BME280;24468;52.128;9.278;2023-09-07T13:13:36;101127.44;;;30.21;58.87
38718;BME280;24468;52.128;9.278;2023-09-07T13:16:01;101125.94;;;30.50;57.67
38718;BME280;24468;52.128;9.278;2023-09-07T13:18:27;101118.00;;;30.62;56.95
38718;BME280;24468;52.128;9.278;2023-09-07T13:20:52;101122.94;;;29.81;59.47
38718;BME280;24468;52.128;9.278;2023-09-07T13:23:33;101130.25;;;30.52;57.63
38718;BME280;24468;52.128;9.278;2023-09-07T13:25:59;101114.84;;;30.42;58.13
38718;BME280;24468;52.128;9.278;2023-09-07T13:28:26;101127.66;;;30.51;57.96
38718;BME280;24468;52.128;9.278;2023-09-07T13:30:51;101117.16;;;30.30;56.64
38718;BME280;24468;52.128;9.278;2023-09-07T13:33:17;101115.66;;;30.73;54.60
38718;BME280;24468;52.128;9.278;2023-09-07T13:35:42;101118.19;;;31.06;52.00
38718;BME280;24468;52.128;9.278;2023-09-07T13:38:09;101112.81;;;30.58;53.52
38718;BME280;24468;52.128;9.278;2023-09-07T13:40:35;101114.69;;;30.89;53.29
38718;BME280;24468;52.128;9.278;2023-09-07T13:43:01;101114.41;;;30.99;52.86
38718;BME280;24468;52.128;9.278;2023-09-07T13:45:26;101109.56;;;31.16;52.38
38718;BME280;24468;52.128;9.278;2023-09-07T13:47:53;101114.81;;;30.50;53.83
38718;BME280;24468;52.128;9.278;2023-09-07T13:50:19;101107.59;;;30.78;53.92
38718;BME280;24468;52.128;9.278;2023-09-07T13:52:45;101102.53;;;30.82;53.83
38718;BME280;24468;52.128;9.278;2023-09-07T13:55:10;101109.59;;;30.93;53.92
38718;BME280;24468;52.128;9.278;2023-09-07T13:57:36;101106.25;;;30.74;53.39
38718;BME280;24468;52.128;9.278;2023-09-07T14:00:02;101109.91;;;30.98;53.49
38718;BME280;24468;52.128;9.278;2023-09-07T14:02:28;101101.41;;;31.29;53.04
38718;BME280;24468;52.128;9.278;2023-09-07T14:04:53;101103.44;;;31.35;51.94
38718;BME280;24468;52.128;9.278;2023-09-07T14:07:19;101094.03;;;31.36;52.07